Time;durP1;ratioP1;P1;durP2;ratioP2;P2;SDS_P1;SDS_P2;PMS_P1;PMS_P2;Temp;Humidity;BMP_temperature;BMP_pressure;BME280_temperature;BME280_humidity;BME280_pressure;Samples;Min_cycle;Max_cycle;Signal;HPM_P1;HPM_P2
2024/04/20 00:00:23;;;;;;;;;;;10.90;60.50;;;;;;5215688;27;85451;-42
2024/04/20 00:02:52;;;;;;;;;;;10.90;60.40;;;;;;5210633;27;85252;-42
2024/04/20 00:05:18;;;;;;;;;;;10.90;60.40;;;;;;5221279;27;86002;-42
2024/04/20 00:07:45;;;;;;;;;;;10.90;60.50;;;;;;5216820;27;84513;-42
2024/04/20 00:10:12;;;;;;;;;;;10.90;60.50;;;;;;5210603;26;86663;-41
2024/04/20 00:12:37;;;;;;;;;;;10.90;60.50;;;;;;5214199;27;86901;-42
2024/04/20 00:15:03;;;;;;;;;;;10.90;60.50;;;;;;5217682;26;87274;-42
2024/04/20 00:17:29;;;;;;;;;;;10.80;60.50;;;;;;5214104;26;87519;-41
2024/04/20 00:19:54;;;;;;;;;;;10.90;60.50;;;;;;5216839;27;85349;-42
2024/04/20 00:22:20;;;;;;;;;;;10.80;60.50;;;;;;5217312;27;85459;-42
2024/04/20 00:24:49;;;;;;;;;;;10.80;60.50;;;;;;5200154;27;85819;-42
2024/04/20 00:27:15;;;;;;;;;;;10.80;60.50;;;;;;5203516;27;87038;-42
2024/04/20 00:29:40;;;;;;;;;;;10.80;60.60;;;;;;5201516;27;86901;-41
2024/04/20 00:32:06;;;;;;;;;;;10.80;60.60;;;;;;5218762;27;85002;-42
2024/04/20 00:34:32;;;;;;;;;;;10.80;60.50;;;;;;5216144;27;85326;-42
2024/04/20 00:36:57;;;;;;;;;;;10.80;60.50;;;;;;5228595;26;86726;-42
2024/04/20 00:39:23;;;;;;;;;;;10.80;60.70;;;;;;5196261;26;87264;-42
2024/04/20 00:41:49;;;;;;;;;;;10.80;60.60;;;;;;5228942;27;86834;-42
2024/04/20 00:44:15;;;;;;;;;;;10.80;60.60;;;;;;5208800;27;87095;-42
2024/04/20 00:46:41;;;;;;;;;;;10.80;60.70;;;;;;5230967;26;85721;-42
2024/04/20 00:49:08;;;;;;;;;;;10.80;60.60;;;;;;5210192;27;86832;-42
2024/04/20 00:51:33;;;;;;;;;;;10.80;60.60;;;;;;5224400;27;86181;-42
2024/04/20 00:53:59;;;;;;;;;;;10.80;60.60;;;;;;5213661;27;85232;-42
2024/04/20 00:56:25;;;;;;;;;;;10.80;60.70;;;;;;5226790;27;85161;-42
2024/04/20 00:58:50;;;;;;;;;;;10.80;60.70;;;;;;5209085;27;85395;-42
2024/04/20 01:01:16;;;;;;;;;;;10.80;60.80;;;;;;5213590;27;85434;-42
2024/04/20 01:03:42;;;;;;;;;;;10.80;60.70;;;;;;5215215;26;87989;-42
2024/04/20 01:06:08;;;;;;;;;;;10.70;60.80;;;;;;5220548;26;85703;-47
2024/04/20 01:08:34;;;;;;;;;;;10.80;60.70;;;;;;5210951;27;86627;-41
2024/04/20 01:11:00;;;;;;;;;;;10.70;60.70;;;;;;5208423;27;86994;-42
2024/04/20 01:13:26;;;;;;;;;;;10.70;60.70;;;;;;5219363;26;85315;-42
2024/04/20 01:15:52;;;;;;;;;;;10.70;60.70;;;;;;5205843;26;86467;-42
2024/04/20 01:18:17;;;;;;;;;;;10.70;60.70;;;;;;5218692;27;87069;-42
2024/04/20 01:20:43;;;;;;;;;;;10.70;60.80;;;;;;5208083;27;86714;-41
2024/04/20 01:23:09;;;;;;;;;;;10.70;60.80;;;;;;5213643;27;87077;-41
2024/04/20 01:25:35;;;;;;;;;;;10.70;60.80;;;;;;5213318;27;85344;-42
2024/04/20 01:28:01;;;;;;;;;;;10.70;60.80;;;;;;5217160;27;86464;-42
2024/04/20 01:30:27;;;;;;;;;;;10.70;60.80;;;;;;5214684;27;87240;-42
2024/04/20 01:32:52;;;;;;;;;;;10.70;60.80;;;;;;5214168;26;85397;-42
2024/04/20 01:35:21;;;;;;;;;;;10.70;60.80;;;;;;5213179;27;85492;-42
2024/04/20 01:37:46;;;;;;;;;;;10.60;60.90;;;;;;5221011;26;87044;-42
2024/04/20 01:40:12;;;;;;;;;;;10.70;60.90;;;;;;5202604;27;85132;-42
2024/04/20 01:42:38;;;;;;;;;;;10.70;60.80;;;;;;5226561;26;85680;-42
2024/04/20 01:45:03;;;;;;;;;;;10.70;60.80;;;;;;5204694;27;85103;-42
2024/04/20 01:47:29;;;;;;;;;;;10.70;60.90;;;;;;5218546;27;85649;-42
2024/04/20 01:49:55;;;;;;;;;;;10.60;60.90;;;;;;5208890;27;87361;-42
2024/04/20 01:52:20;;;;;;;;;;;10.60;60.80;;;;;;5232070;27;86243;-42
2024/04/20 01:54:46;;;;;;;;;;;10.60;60.80;;;;;;5199983;27;86579;-41
2024/04/20 01:57:11;;;;;;;;;;;10.60;60.90;;;;;;5219631;27;86974;-41
2024/04/20 01:59:37;;;;;;;;;;;10.60;60.80;;;;;;5214343;27;85311;-42
2024/04/20 02:02:03;;;;;;;;;;;10.70;60.90;;;;;;5223571;27;87788;-42
2024/04/20 02:04:28;;;;;;;;;;;10.60;60.90;;;;;;5211824;27;86624;-42
2024/04/20 02:06:55;;;;;;;;;;;10.60;60.90;;;;;;5213261;27;86624;-42
2024/04/20 02:09:21;;;;;;;;;;;10.60;60.90;;;;;;5214938;27;86255;-42
2024/04/20 02:11:46;;;;;;;;;;;10.60;60.90;;;;;;5215138;27;85341;-42
2024/04/20 02:14:12;;;;;;;;;;;10.60;60.90;;;;;;5215916;27;85611;-42
2024/04/20 02:16:37;;;;;;;;;;;10.60;60.90;;;;;;5213396;27;87719;-42
2024/04/20 02:19:03;;;;;;;;;;;10.60;60.90;;;;;;5209857;27;85187;-42
2024/04/20 02:21:28;;;;;;;;;;;10.60;61.00;;;;;;5218917;27;85274;-41
2024/04/20 02:23:54;;;;;;;;;;;10.60;60.90;;;;;;5227167;27;87263;-41
2024/04/20 02:26:20;;;;;;;;;;;10.60;61.10;;;;;;5212858;26;85287;-41
2024/04/20 02:28:45;;;;;;;;;;;10.50;61.00;;;;;;5214771;27;86969;-41
2024/04/20 02:31:11;;;;;;;;;;;10.50;61.10;;;;;;5204380;27;86091;-42
2024/04/20 02:33:36;;;;;;;;;;;10.50;61.20;;;;;;5212769;27;85349;-42
2024/04/20 02:36:02;;;;;;;;;;;10.50;61.20;;;;;;5215331;27;86038;-42
2024/04/20 02:38:28;;;;;;;;;;;10.50;61.20;;;;;;5216395;27;85331;-42
2024/04/20 02:40:56;;;;;;;;;;;10.50;61.20;;;;;;5208090;26;86790;-42
2024/04/20 02:43:22;;;;;;;;;;;10.50;61.20;;;;;;5217123;27;86926;-41
2024/04/20 02:45:48;;;;;;;;;;;10.50;61.10;;;;;;5210874;27;85555;-42
2024/04/20 02:48:13;;;;;;;;;;;10.40;61.20;;;;;;5225130;27;87371;-42
2024/04/20 02:50:39;;;;;;;;;;;10.50;61.10;;;;;;5208118;27;86522;-41
2024/04/20 02:53:04;;;;;;;;;;;10.40;61.10;;;;;;5223254;26;86591;-41
2024/04/20 02:55:30;;;;;;;;;;;10.40;61.20;;;;;;5209766;27;86899;-42
2024/04/20 02:57:56;;;;;;;;;;;10.40;61.10;;;;;;5214797;27;84745;-41
2024/04/20 03:00:21;;;;;;;;;;;10.30;61.10;;;;;;5201745;27;85849;-41
2024/04/20 03:02:47;;;;;;;;;;;10.40;61.20;;;;;;5214145;27;85752;-42
2024/04/20 03:05:12;;;;;;;;;;;10.30;61.10;;;;;;5214906;27;86270;-41
2024/04/20 03:07:38;;;;;;;;;;;10.30;61.30;;;;;;5210460;27;85893;-41
2024/04/20 03:10:04;;;;;;;;;;;10.40;61.10;;;;;;5206670;27;85423;-41
2024/04/20 03:12:29;;;;;;;;;;;10.40;61.00;;;;;;5210280;27;86358;-42
2024/04/20 03:14:55;;;;;;;;;;;10.40;60.80;;;;;;5208799;27;87062;-42
2024/04/20 03:17:20;;;;;;;;;;;10.40;60.80;;;;;;5220087;26;85717;-42
2024/04/20 03:19:46;;;;;;;;;;;10.40;60.80;;;;;;5210788;27;85777;-41
2024/04/20 03:22:12;;;;;;;;;;;10.40;60.80;;;;;;5199294;27;86385;-41
2024/04/20 03:24:38;;;;;;;;;;;10.40;60.80;;;;;;5209044;27;85311;-42
2024/04/20 03:27:04;;;;;;;;;;;10.40;60.90;;;;;;5218623;27;86565;-41
2024/04/20 03:29:30;;;;;;;;;;;10.40;60.90;;;;;;5212967;27;86596;-41
2024/04/20 03:31:56;;;;;;;;;;;10.40;60.90;;;;;;5200093;27;87502;-41
2024/04/20 03:34:21;;;;;;;;;;;10.40;60.90;;;;;;5220969;27;85819;-42
2024/04/20 03:36:47;;;;;;;;;;;10.40;60.70;;;;;;5210978;26;87428;-42
2024/04/20 03:39:13;;;;;;;;;;;10.40;60.80;;;;;;5226084;26;86919;-42
2024/04/20 03:41:39;;;;;;;;;;;10.40;60.80;;;;;;5209418;27;86972;-41
2024/04/20 03:44:04;;;;;;;;;;;10.40;60.90;;;;;;5228870;27;85779;-41
2024/04/20 03:46:31;;;;;;;;;;;10.40;60.80;;;;;;5210781;27;85278;-42
2024/04/20 03:48:57;;;;;;;;;;;10.40;60.70;;;;;;5227273;27;85833;-41
2024/04/20 03:51:23;;;;;;;;;;;10.40;60.70;;;;;;5209422;27;85899;-41
2024/04/20 03:53:49;;;;;;;;;;;10.40;60.70;;;;;;5228904;27;86886;-41
2024/04/20 03:56:14;;;;;;;;;;;10.30;60.70;;;;;;5213356;26;85347;-42
2024/04/20 03:58:40;;;;;;;;;;;10.40;60.70;;;;;;5217331;26;85587;-42
2024/04/20 04:01:05;;;;;;;;;;;10.30;60.80;;;;;;5204079;27;85864;-42
2024/04/20 04:03:31;;;;;;;;;;;10.30;61.00;;;;;;5225567;27;85465;-42
2024/04/20 04:05:56;;;;;;;;;;;10.30;61.10;;;;;;5213358;27;86563;-42
2024/04/20 04:08:23;;;;;;;;;;;10.20;61.20;;;;;;5222510;27;87242;-42
2024/04/20 04:10:49;;;;;;;;;;;10.20;61.20;;;;;;5219140;26;84544;-42
2024/04/20 04:13:15;;;;;;;;;;;10.20;61.10;;;;;;5213601;27;86131;-42
2024/04/20 04:15:41;;;;;;;;;;;10.20;61.10;;;;;;5209259;27;85272;-43
2024/04/20 04:18:08;;;;;;;;;;;10.30;61.10;;;;;;5213996;26;86757;-41
2024/04/20 04:20:34;;;;;;;;;;;10.30;61.10;;;;;;5209750;26;85980;-42
2024/04/20 04:23:02;;;;;;;;;;;10.30;61.10;;;;;;5215457;27;85319;-42
2024/04/20 04:25:30;;;;;;;;;;;10.20;61.00;;;;;;5219689;27;86642;-41
2024/04/20 04:27:56;;;;;;;;;;;10.30;61.00;;;;;;5211052;27;85742;-41
2024/04/20 04:30:21;;;;;;;;;;;10.30;61.10;;;;;;5216817;27;85991;-42
2024/04/20 04:32:47;;;;;;;;;;;10.30;61.10;;;;;;5205557;27;85416;-42
2024/04/20 04:35:12;;;;;;;;;;;10.30;61.10;;;;;;5227236;26;84609;-42
2024/04/20 04:37:38;;;;;;;;;;;10.30;61.00;;;;;;5204357;27;86016;-42
2024/04/20 04:40:04;;;;;;;;;;;10.30;61.10;;;;;;5215241;27;87190;-42
2024/04/20 04:42:29;;;;;;;;;;;10.20;61.10;;;;;;5196893;27;86381;-42
2024/04/20 04:44:55;;;;;;;;;;;10.20;61.10;;;;;;5219150;26;87874;-42
2024/04/20 04:47:21;;;;;;;;;;;10.20;61.10;;;;;;5209953;27;86386;-42
2024/04/20 04:49:47;;;;;;;;;;;10.20;61.30;;;;;;5214185;27;85585;-42
2024/04/20 04:52:12;;;;;;;;;;;10.30;61.30;;;;;;5210085;27;86528;-41
2024/04/20 04:54:38;;;;;;;;;;;10.20;61.40;;;;;;5223700;27;86882;-41
2024/04/20 04:57:04;;;;;;;;;;;10.20;61.30;;;;;;5203801;27;85747;-42
2024/04/20 04:59:29;;;;;;;;;;;10.20;61.30;;;;;;5221421;27;86526;-41
2024/04/20 05:01:55;;;;;;;;;;;10.10;61.30;;;;;;5204326;27;85362;-42
2024/04/20 05:04:20;;;;;;;;;;;10.10;61.20;;;;;;5217134;26;86639;-42
2024/04/20 05:06:46;;;;;;;;;;;10.10;61.30;;;;;;5212978;26;88151;-41
2024/04/20 05:09:12;;;;;;;;;;;10.20;61.30;;;;;;5212382;26;85307;-41
2024/04/20 05:11:38;;;;;;;;;;;10.20;61.30;;;;;;5210623;27;85314;-41
2024/04/20 05:14:03;;;;;;;;;;;10.20;61.20;;;;;;5223199;27;86818;-41
2024/04/20 05:16:29;;;;;;;;;;;10.20;61.30;;;;;;5216926;27;86644;-41
2024/04/20 05:18:54;;;;;;;;;;;10.20;61.40;;;;;;5215637;27;86978;-42
2024/04/20 05:21:20;;;;;;;;;;;10.10;61.20;;;;;;5212933;26;85354;-42
2024/04/20 05:23:46;;;;;;;;;;;10.20;61.30;;;;;;5212574;26;86431;-43
2024/04/20 05:26:11;;;;;;;;;;;10.20;61.30;;;;;;5206584;27;87052;-42
2024/04/20 05:28:37;;;;;;;;;;;10.10;61.20;;;;;;5218615;27;86938;-42
2024/04/20 05:31:03;;;;;;;;;;;10.10;61.20;;;;;;5226045;26;86620;-41
2024/04/20 05:33:28;;;;;;;;;;;10.20;61.30;;;;;;5201295;27;86186;-42
2024/04/20 05:35:54;;;;;;;;;;;10.10;61.30;;;;;;5227973;27;85307;-41
2024/04/20 05:38:19;;;;;;;;;;;10.10;61.40;;;;;;5193009;27;86959;-42
2024/04/20 05:40:45;;;;;;;;;;;10.10;61.40;;;;;;5227219;27;85395;-41
2024/04/20 05:43:11;;;;;;;;;;;10.10;61.30;;;;;;5208269;27;85401;-41
2024/04/20 05:45:36;;;;;;;;;;;10.10;61.20;;;;;;5223283;27;87059;-42
2024/04/20 05:48:03;;;;;;;;;;;10.20;61.20;;;;;;5201261;27;85170;-42
2024/04/20 05:50:29;;;;;;;;;;;10.10;61.10;;;;;;5204951;26;85901;-41
2024/04/20 05:52:55;;;;;;;;;;;10.10;61.10;;;;;;5198088;27;85799;-42
2024/04/20 05:55:21;;;;;;;;;;;10.10;61.20;;;;;;5224166;27;86269;-42
2024/04/20 05:57:46;;;;;;;;;;;10.10;61.10;;;;;;5196701;27;87617;-42
2024/04/20 06:00:12;;;;;;;;;;;10.10;61.10;;;;;;5215080;27;85286;-41
2024/04/20 06:02:38;;;;;;;;;;;10.10;61.10;;;;;;5201113;27;85391;-41
2024/04/20 06:05:03;;;;;;;;;;;10.20;61.00;;;;;;5207422;27;86144;-41
2024/04/20 06:07:31;;;;;;;;;;;10.20;61.00;;;;;;5215336;27;86143;-41
2024/04/20 06:09:57;;;;;;;;;;;10.20;61.10;;;;;;5227527;27;86570;-42
2024/04/20 06:12:22;;;;;;;;;;;10.20;60.90;;;;;;5205506;27;86661;-42
2024/04/20 06:14:48;;;;;;;;;;;10.20;60.90;;;;;;5217447;27;85294;-42
2024/04/20 06:17:14;;;;;;;;;;;10.20;60.90;;;;;;5217150;27;86497;-42
2024/04/20 06:19:40;;;;;;;;;;;10.20;60.80;;;;;;5219646;27;87669;-42
2024/04/20 06:22:05;;;;;;;;;;;10.20;60.80;;;;;;5219135;27;86228;-41
2024/04/20 06:24:31;;;;;;;;;;;10.20;60.80;;;;;;5216572;27;86057;-42
2024/04/20 06:26:57;;;;;;;;;;;10.30;60.70;;;;;;5215628;27;85396;-42
2024/04/20 06:29:26;;;;;;;;;;;10.30;60.70;;;;;;5208521;27;86624;-42
2024/04/20 06:31:51;;;;;;;;;;;10.30;60.80;;;;;;5223927;27;86904;-42
2024/04/20 06:34:17;;;;;;;;;;;10.30;60.90;;;;;;5212884;27;85263;-41
2024/04/20 06:36:43;;;;;;;;;;;10.30;60.90;;;;;;5226063;27;84943;-42
2024/04/20 06:39:08;;;;;;;;;;;10.30;60.90;;;;;;5219930;27;87035;-41
2024/04/20 06:41:34;;;;;;;;;;;10.30;60.90;;;;;;5227677;27;85787;-41
2024/04/20 06:44:00;;;;;;;;;;;10.30;60.90;;;;;;5209807;27;87094;-42
2024/04/20 06:46:28;;;;;;;;;;;10.30;61.10;;;;;;5222225;27;85532;-42
2024/04/20 06:48:54;;;;;;;;;;;10.30;60.80;;;;;;5207710;27;86134;-42
2024/04/20 06:51:20;;;;;;;;;;;10.30;61.10;;;;;;5208929;27;88891;-42
2024/04/20 06:53:45;;;;;;;;;;;10.30;61.10;;;;;;5208044;27;85297;-43
2024/04/20 06:56:12;;;;;;;;;;;10.40;61.10;;;;;;5228028;27;86463;-42
2024/04/20 06:58:41;;;;;;;;;;;10.40;61.20;;;;;;5210521;27;86770;-41
2024/04/20 07:01:07;;;;;;;;;;;10.40;61.10;;;;;;5227290;27;84634;-41
2024/04/20 07:03:34;;;;;;;;;;;10.40;61.10;;;;;;5214738;27;85933;-42
2024/04/20 07:06:00;;;;;;;;;;;10.40;60.90;;;;;;5221382;27;85206;-42
2024/04/20 07:08:27;;;;;;;;;;;10.40;60.90;;;;;;5208945;27;86458;-42
2024/04/20 07:11:06;;;;;;;;;;;10.40;61.20;;;;;;5216717;27;87034;-42
2024/04/20 07:13:34;;;;;;;;;;;10.40;61.20;;;;;;5214954;26;85264;-42
2024/04/20 07:16:00;;;;;;;;;;;10.30;61.30;;;;;;5216502;26;85809;-42
2024/04/20 07:18:26;;;;;;;;;;;10.30;61.40;;;;;;5223151;27;85827;-41
2024/04/20 07:20:51;;;;;;;;;;;10.30;61.30;;;;;;5205066;27;85361;-43
2024/04/20 07:23:17;;;;;;;;;;;10.30;61.40;;;;;;5224355;27;86839;-42
2024/04/20 07:25:44;;;;;;;;;;;10.40;61.50;;;;;;5209542;27;84519;-41
2024/04/20 07:28:09;;;;;;;;;;;10.30;61.40;;;;;;5225884;27;85945;-42
2024/04/20 07:30:35;;;;;;;;;;;10.30;61.40;;;;;;5202642;27;85705;-41
2024/04/20 07:33:00;;;;;;;;;;;10.40;61.40;;;;;;5226216;27;86214;-42
2024/04/20 07:35:26;;;;;;;;;;;10.40;61.40;;;;;;5199060;26;87674;-41
2024/04/20 07:37:51;;;;;;;;;;;10.40;61.40;;;;;;5229664;26;86920;-43
2024/04/20 07:40:17;;;;;;;;;;;10.40;61.40;;;;;;5208454;27;85836;-42
2024/04/20 07:42:43;;;;;;;;;;;10.40;61.40;;;;;;5222456;27;86572;-41
2024/04/20 07:45:08;;;;;;;;;;;10.40;61.40;;;;;;5214063;27;86969;-41
2024/04/20 07:47:34;;;;;;;;;;;10.50;61.60;;;;;;5216928;26;85334;-42
2024/04/20 07:50:00;;;;;;;;;;;10.50;61.50;;;;;;5219997;27;85590;-42
2024/04/20 07:52:25;;;;;;;;;;;10.40;61.50;;;;;;5218667;26;85442;-42
2024/04/20 07:54:51;;;;;;;;;;;10.50;61.70;;;;;;5211598;27;86723;-42
2024/04/20 07:57:17;;;;;;;;;;;10.40;61.80;;;;;;5220720;26;86705;-41
2024/04/20 07:59:42;;;;;;;;;;;10.40;61.80;;;;;;5211630;27;86024;-41
2024/04/20 08:02:09;;;;;;;;;;;10.40;62.00;;;;;;5223051;27;86469;-41
2024/04/20 08:04:35;;;;;;;;;;;10.40;61.80;;;;;;5215228;27;86657;-41
2024/04/20 08:07:00;;;;;;;;;;;10.40;61.90;;;;;;5223856;26;85585;-42
2024/04/20 08:09:26;;;;;;;;;;;10.40;62.10;;;;;;5208769;27;87104;-42
2024/04/20 08:11:52;;;;;;;;;;;10.40;62.00;;;;;;5212240;26;85302;-42
2024/04/20 08:14:17;;;;;;;;;;;10.40;62.00;;;;;;5213318;27;86643;-41
2024/04/20 08:16:43;;;;;;;;;;;10.40;62.10;;;;;;5204363;27;85812;-42
2024/04/20 08:19:08;;;;;;;;;;;10.40;62.10;;;;;;5210408;27;85337;-42
2024/04/20 08:21:34;;;;;;;;;;;10.40;62.10;;;;;;5213635;27;86973;-42
2024/04/20 08:24:00;;;;;;;;;;;10.40;62.00;;;;;;5221748;26;86044;-42
2024/04/20 08:26:26;;;;;;;;;;;10.50;62.20;;;;;;5203275;27;85310;-42
2024/04/20 08:28:52;;;;;;;;;;;10.40;62.20;;;;;;5214697;27;85809;-42
2024/04/20 08:31:18;;;;;;;;;;;10.40;62.20;;;;;;5208942;27;85347;-41
2024/04/20 08:33:43;;;;;;;;;;;10.40;62.20;;;;;;5223895;27;85566;-42
2024/04/20 08:36:09;;;;;;;;;;;10.50;62.30;;;;;;5210435;27;86965;-41
2024/04/20 08:38:34;;;;;;;;;;;10.40;62.30;;;;;;5227395;27;84720;-41
2024/04/20 08:41:03;;;;;;;;;;;10.50;62.30;;;;;;5210830;27;85194;-41
2024/04/20 08:43:29;;;;;;;;;;;10.50;62.30;;;;;;5218990;27;85795;-41
2024/04/20 08:46:00;;;;;;;;;;;10.40;62.30;;;;;;5209931;27;86306;-42
2024/04/20 08:48:27;;;;;;;;;;;10.50;62.30;;;;;;5219007;27;87459;-42
2024/04/20 08:50:54;;;;;;;;;;;10.50;62.20;;;;;;5210220;27;85943;-41
2024/04/20 08:53:20;;;;;;;;;;;10.50;62.50;;;;;;5216814;26;86796;-42
2024/04/20 08:55:47;;;;;;;;;;;10.50;62.30;;;;;;5213589;27;86902;-41
2024/04/20 08:58:15;;;;;;;;;;;10.50;62.30;;;;;;5217114;27;85404;-41
2024/04/20 09:00:42;;;;;;;;;;;10.50;62.40;;;;;;5211914;27;85557;-41
2024/04/20 09:03:08;;;;;;;;;;;10.50;62.50;;;;;;5214482;27;86298;-42
2024/04/20 09:05:33;;;;;;;;;;;10.50;62.50;;;;;;5221341;27;85420;-42
2024/04/20 09:08:00;;;;;;;;;;;10.50;62.30;;;;;;5220534;27;86754;-42
2024/04/20 09:10:26;;;;;;;;;;;10.50;62.40;;;;;;5215980;27;86460;-42
2024/04/20 09:12:51;;;;;;;;;;;10.50;62.40;;;;;;5218115;26;86239;-42
2024/04/20 09:15:19;;;;;;;;;;;10.60;62.30;;;;;;5215235;26;87015;-41
2024/04/20 09:17:45;;;;;;;;;;;10.50;62.50;;;;;;5211030;27;86325;-41
2024/04/20 09:20:12;;;;;;;;;;;10.50;62.30;;;;;;5223314;26;86858;-41
2024/04/20 09:22:38;;;;;;;;;;;10.50;62.50;;;;;;5206140;27;87049;-42
2024/04/20 09:25:04;;;;;;;;;;;10.60;62.50;;;;;;5228921;26;85900;-42
2024/04/20 09:27:29;;;;;;;;;;;10.60;62.50;;;;;;5203819;26;87265;-42
2024/04/20 09:29:55;;;;;;;;;;;10.60;62.30;;;;;;5230819;27;86965;-42
2024/04/20 09:32:22;;;;;;;;;;;10.60;62.40;;;;;;5214091;27;86137;-42
2024/04/20 09:34:48;;;;;;;;;;;10.60;62.40;;;;;;5228756;26;88118;-42
2024/04/20 09:37:14;;;;;;;;;;;10.70;62.30;;;;;;5208766;27;85234;-41
2024/04/20 09:39:41;;;;;;;;;;;10.70;62.40;;;;;;5221063;27;85294;-42
2024/04/20 09:42:07;;;;;;;;;;;10.70;62.30;;;;;;5204569;26;86163;-42
2024/04/20 09:44:33;;;;;;;;;;;10.70;62.20;;;;;;5222565;27;85359;-42
2024/04/20 09:46:58;;;;;;;;;;;10.80;62.50;;;;;;5206783;27;85192;-42
2024/04/20 09:49:27;;;;;;;;;;;10.70;62.00;;;;;;5217617;27;85454;-42
2024/04/20 09:51:56;;;;;;;;;;;10.70;62.40;;;;;;5210618;27;85631;-41
2024/04/20 09:54:25;;;;;;;;;;;10.70;62.70;;;;;;5220291;27;85970;-41
2024/04/20 09:56:51;;;;;;;;;;;10.70;62.40;;;;;;5213621;27;85333;-41
2024/04/20 09:59:18;;;;;;;;;;;10.70;62.40;;;;;;5209634;27;86513;-41
2024/04/20 10:01:45;;;;;;;;;;;10.80;62.20;;;;;;5214303;27;85706;-41
2024/04/20 10:04:11;;;;;;;;;;;10.80;62.20;;;;;;5203695;27;85223;-42
2024/04/20 10:06:37;;;;;;;;;;;10.90;62.10;;;;;;5219638;26;85891;-39
2024/04/20 10:09:03;;;;;;;;;;;10.80;62.30;;;;;;5199487;27;86897;-44
2024/04/20 10:11:30;;;;;;;;;;;10.80;62.70;;;;;;5213045;27;85507;-42
2024/04/20 10:13:56;;;;;;;;;;;10.80;63.30;;;;;;5204176;27;85991;-42
2024/04/20 10:16:21;;;;;;;;;;;10.80;63.50;;;;;;5224935;27;86159;-41
2024/04/20 10:18:47;;;;;;;;;;;10.90;62.40;;;;;;5203775;27;85477;-54
2024/04/20 10:21:16;;;;;;;;;;;10.80;62.10;;;;;;5219758;27;86093;-40
2024/04/20 10:23:44;;;;;;;;;;;10.80;62.70;;;;;;5203781;27;87151;-44
2024/04/20 10:26:11;;;;;;;;;;;10.80;63.30;;;;;;5231230;27;86141;-42
2024/04/20 10:28:39;;;;;;;;;;;10.80;63.40;;;;;;5214052;27;86905;-45
2024/04/20 10:31:05;;;;;;;;;;;10.80;63.70;;;;;;5227929;27;85501;-50
2024/04/20 10:33:35;;;;;;;;;;;10.90;63.60;;;;;;5204604;27;87111;-43
2024/04/20 10:36:12;;;;;;;;;;;10.90;63.90;;;;;;5223313;27;87051;-43
2024/04/20 10:38:37;;;;;;;;;;;11.00;63.80;;;;;;5217836;27;85532;-40
2024/04/20 10:41:29;;;;;;;;;;;11.00;63.50;;;;;;5199015;27;85157;-46
2024/04/20 10:43:54;;;;;;;;;;;11.00;63.70;;;;;;5193693;26;85603;-46
2024/04/20 10:46:21;;;;;;;;;;;11.10;64.00;;;;;;5188369;27;86776;-47
2024/04/20 10:48:53;;;;;;;;;;;11.00;63.30;;;;;;5187858;27;88126;-47
2024/04/20 10:51:20;;;;;;;;;;;11.10;63.50;;;;;;5190354;27;86213;-46
2024/04/20 10:53:46;;;;;;;;;;;11.00;63.40;;;;;;5189671;27;86631;-46
2024/04/20 10:56:13;;;;;;;;;;;11.00;63.30;;;;;;5190312;27;86183;-49
2024/04/20 10:58:40;;;;;;;;;;;11.10;62.50;;;;;;5191303;27;85779;-59
2024/04/20 11:01:06;;;;;;;;;;;11.20;62.50;;;;;;5197474;27;85894;-49
2024/04/20 11:03:32;;;;;;;;;;;11.30;61.80;;;;;;5193048;27;85970;-55
2024/04/20 11:05:58;;;;;;;;;;;11.40;62.40;;;;;;5201560;27;90153;-59
2024/04/20 11:08:24;;;;;;;;;;;11.40;61.60;;;;;;5189220;27;87286;-47
2024/04/20 11:10:53;;;;;;;;;;;11.50;61.20;;;;;;5189129;27;86059;-47
2024/04/20 11:13:19;;;;;;;;;;;11.40;61.20;;;;;;5188176;27;88211;-43
2024/04/20 11:15:46;;;;;;;;;;;11.50;59.80;;;;;;5187901;27;87407;-41
2024/04/20 11:18:13;;;;;;;;;;;11.60;60.10;;;;;;5186904;27;86154;-38
2024/04/20 11:20:38;;;;;;;;;;;11.50;60.70;;;;;;5190352;27;86158;-44
2024/04/20 11:23:04;;;;;;;;;;;11.50;61.60;;;;;;5187776;27;85390;-44
2024/04/20 11:25:30;;;;;;;;;;;11.60;61.00;;;;;;5189214;27;86375;-44
2024/04/20 11:27:56;;;;;;;;;;;11.60;61.10;;;;;;5188788;27;85972;-39
2024/04/20 11:30:22;;;;;;;;;;;11.60;61.30;;;;;;5189167;27;85088;-40
2024/04/20 11:32:57;;;;;;;;;;;11.50;61.50;;;;;;5186632;27;85745;-42
2024/04/20 11:35:22;;;;;;;;;;;11.50;60.30;;;;;;5189750;27;86411;-47
2024/04/20 11:37:48;;;;;;;;;;;11.70;60.00;;;;;;5199393;27;86194;-44
2024/04/20 11:40:15;;;;;;;;;;;11.80;59.10;;;;;;5208143;26;86518;-43
2024/04/20 11:42:43;;;;;;;;;;;11.80;58.20;;;;;;5211011;27;86883;-43
2024/04/20 11:45:15;;;;;;;;;;;11.80;58.50;;;;;;5194221;27;86127;-43
2024/04/20 11:47:41;;;;;;;;;;;11.80;58.80;;;;;;5192654;27;87581;-43
2024/04/20 11:50:07;;;;;;;;;;;11.70;58.60;;;;;;5194478;27;86040;-43
2024/04/20 11:55:17;;;;;;;;;;;11.70;58.00;;;;;;5202809;27;85475;-42
2024/04/20 11:57:43;;;;;;;;;;;11.70;58.20;;;;;;5198299;26;85912;-41
2024/04/20 12:00:10;;;;;;;;;;;11.80;58.60;;;;;;5211602;27;86929;-42
2024/04/20 12:02:35;;;;;;;;;;;11.80;58.30;;;;;;5223489;27;86758;-41
2024/04/20 12:05:02;;;;;;;;;;;11.80;58.50;;;;;;5210576;27;85466;-44
2024/04/20 12:07:27;;;;;;;;;;;11.80;58.20;;;;;;5192365;27;87044;-42
2024/04/20 12:09:53;;;;;;;;;;;11.80;58.30;;;;;;5190603;27;85653;-43
2024/04/20 12:12:18;;;;;;;;;;;11.80;58.80;;;;;;5189279;27;86786;-42
2024/04/20 12:14:44;;;;;;;;;;;12.00;58.60;;;;;;5191316;27;86145;-42
2024/04/20 12:17:10;;;;;;;;;;;12.10;58.40;;;;;;5190726;27;85830;-44
2024/04/20 12:19:36;;;;;;;;;;;12.20;58.30;;;;;;5190876;27;87399;-43
2024/04/20 12:22:01;;;;;;;;;;;12.20;58.40;;;;;;5188151;27;87106;-43
2024/04/20 12:24:27;;;;;;;;;;;12.20;58.50;;;;;;5188558;27;86161;-42
2024/04/20 12:26:53;;;;;;;;;;;12.20;58.60;;;;;;5194967;26;86259;-43
2024/04/20 12:29:19;;;;;;;;;;;12.20;58.60;;;;;;5193351;26;85311;-42
2024/04/20 12:31:44;;;;;;;;;;;12.20;58.60;;;;;;5188217;27;86499;-42
2024/04/20 12:34:12;;;;;;;;;;;12.20;58.80;;;;;;5190763;27;87698;-44
2024/04/20 12:36:38;;;;;;;;;;;12.20;59.10;;;;;;5193799;27;85996;-42
2024/04/20 12:39:03;;;;;;;;;;;12.20;59.10;;;;;;5190230;27;86583;-44
2024/04/20 12:41:29;;;;;;;;;;;12.10;59.10;;;;;;5192089;27;87036;-43
2024/04/20 12:43:54;;;;;;;;;;;12.10;59.20;;;;;;5191741;27;84995;-43
2024/04/20 12:46:20;;;;;;;;;;;12.20;59.30;;;;;;5192885;27;85522;-43
2024/04/20 12:48:46;;;;;;;;;;;12.20;59.30;;;;;;5192771;27;86905;-43
2024/04/20 12:51:11;;;;;;;;;;;12.10;59.20;;;;;;5193752;27;86979;-43
2024/04/20 12:53:37;;;;;;;;;;;12.20;59.30;;;;;;5193243;27;85884;-43
2024/04/20 12:56:02;;;;;;;;;;;12.20;59.30;;;;;;5191146;27;85784;-43
2024/04/20 12:58:28;;;;;;;;;;;12.20;59.40;;;;;;5189315;27;86642;-42
2024/04/20 13:00:53;;;;;;;;;;;12.20;59.50;;;;;;5193487;27;87630;-43
2024/04/20 13:03:20;;;;;;;;;;;12.20;59.30;;;;;;5191322;27;85437;-43
2024/04/20 13:05:45;;;;;;;;;;;12.20;59.30;;;;;;5192811;27;86885;-42
2024/04/20 13:08:11;;;;;;;;;;;12.20;59.40;;;;;;5186599;27;85098;-43
2024/04/20 13:10:38;;;;;;;;;;;12.20;59.50;;;;;;5191373;27;85712;-43
2024/04/20 13:13:04;;;;;;;;;;;12.20;59.50;;;;;;5192632;27;87030;-40
2024/04/20 13:15:29;;;;;;;;;;;12.20;59.40;;;;;;5197477;27;86220;-46
2024/04/20 13:17:55;;;;;;;;;;;12.20;58.00;;;;;;5199371;27;86296;-43
2024/04/20 13:20:21;;;;;;;;;;;12.20;56.80;;;;;;5188759;27;86346;-41
2024/04/20 13:22:47;;;;;;;;;;;12.20;56.30;;;;;;5198612;27;85697;-43
2024/04/20 13:25:12;;;;;;;;;;;12.30;56.50;;;;;;5197686;27;86201;-47
2024/04/20 13:27:38;;;;;;;;;;;12.30;56.10;;;;;;5193415;27;85777;-43
2024/04/20 13:30:05;;;;;;;;;;;12.30;55.20;;;;;;5193493;27;86392;-48
2024/04/20 13:32:30;;;;;;;;;;;12.30;54.80;;;;;;5192520;27;86322;-48
2024/04/20 13:34:56;;;;;;;;;;;12.50;55.50;;;;;;5188258;27;85511;-48
2024/04/20 13:37:23;;;;;;;;;;;12.60;55.70;;;;;;5192374;27;86493;-41
2024/04/20 13:39:49;;;;;;;;;;;12.40;54.70;;;;;;5188434;27;89425;-52
2024/04/20 13:42:16;;;;;;;;;;;12.40;55.60;;;;;;5192693;27;85569;-41
2024/04/20 13:44:41;;;;;;;;;;;12.40;55.60;;;;;;5197068;27;86098;-46
2024/04/20 13:47:07;;;;;;;;;;;12.50;55.70;;;;;;5194896;27;86051;-47
2024/04/20 13:49:32;;;;;;;;;;;12.50;55.70;;;;;;5192496;27;86135;-45
2024/04/20 13:51:58;;;;;;;;;;;12.50;54.60;;;;;;5192577;27;85372;-45
2024/04/20 13:54:23;;;;;;;;;;;12.50;55.00;;;;;;5192914;27;85919;-52
2024/04/20 13:56:53;;;;;;;;;;;12.60;55.00;;;;;;5197157;27;85465;-57
2024/04/20 13:59:18;;;;;;;;;;;12.60;53.90;;;;;;5203410;27;86911;-51
2024/04/20 14:01:44;;;;;;;;;;;12.60;54.30;;;;;;5205244;27;85937;-45
2024/04/20 14:04:10;;;;;;;;;;;12.60;54.30;;;;;;5217742;27;86622;-49
2024/04/20 14:06:35;;;;;;;;;;;12.60;53.90;;;;;;5199634;27;86853;-44
2024/04/20 14:09:01;;;;;;;;;;;12.60;53.10;;;;;;5217672;27;85335;-42
2024/04/20 14:11:27;;;;;;;;;;;12.60;54.20;;;;;;5228684;27;85868;-51